sensor_id;sensor_type;location;lat;lon;timestamp;temperature;humidity
70421;SHT31;57848;51.938;15.520;2023-06-05T00:01:15;16.77;40.36
70421;SHT31;57848;51.938;15.520;2023-06-05T00:03:41;16.77;40.31
70421;SHT31;57848;51.938;15.520;2023-06-05T00:06:08;16.71;40.39
70421;SHT31;57848;51.938;15.520;2023-06-05T00:08:34;16.74;40.38
70421;SHT31;57848;51.938;15.520;2023-06-05T00:10:59;16.71;40.46
70421;SHT31;57848;51.938;15.520;2023-06-05T00:13:24;16.69;40.57
70421;SHT31;57848;51.938;15.520;2023-06-05T00:15:50;16.67;40.69
70421;SHT31;57848;51.938;15.520;2023-06-05T00:18:17;16.63;41.00
70421;SHT31;57848;51.938;15.520;2023-06-05T00:20:42;16.61;40.94
70421;SHT31;57848;51.938;15.520;2023-06-05T00:23:08;16.56;41.13
70421;SHT31;57848;51.938;15.520;2023-06-05T00:25:33;16.55;41.34
70421;SHT31;57848;51.938;15.520;2023-06-05T00:27:59;16.49;41.64
70421;SHT31;57848;51.938;15.520;2023-06-05T00:30:24;16.47;41.74
70421;SHT31;57848;51.938;15.520;2023-06-05T00:32:49;16.47;41.99
70421;SHT31;57848;51.938;15.520;2023-06-05T00:35:15;16.42;42.22
70421;SHT31;57848;51.938;15.520;2023-06-05T00:37:40;16.43;42.20
70421;SHT31;57848;51.938;15.520;2023-06-05T00:40:06;16.42;42.28
70421;SHT31;57848;51.938;15.520;2023-06-05T00:42:32;16.45;42.15
70421;SHT31;57848;51.938;15.520;2023-06-05T00:44:57;16.39;42.46
70421;SHT31;57848;51.938;15.520;2023-06-05T00:47:22;16.36;42.63
70421;SHT31;57848;51.938;15.520;2023-06-05T00:49:49;16.38;42.63
70421;SHT31;57848;51.938;15.520;2023-06-05T00:52:15;16.34;42.61
70421;SHT31;57848;51.938;15.520;2023-06-05T00:54:41;16.26;42.97
70421;SHT31;57848;51.938;15.520;2023-06-05T00:57:08;16.28;42.93
70421;SHT31;57848;51.938;15.520;2023-06-05T00:59:36;16.19;43.28
70421;SHT31;57848;51.938;15.520;2023-06-05T01:02:01;16.15;43.27
70421;SHT31;57848;51.938;15.520;2023-06-05T01:04:30;16.06;43.81
70421;SHT31;57848;51.938;15.520;2023-06-05T01:06:58;16.06;43.72
70421;SHT31;57848;51.938;15.520;2023-06-05T01:09:25;16.09;43.60
70421;SHT31;57848;51.938;15.520;2023-06-05T01:11:55;15.97;43.88
70421;SHT31;57848;51.938;15.520;2023-06-05T01:14:30;15.94;43.87
70421;SHT31;57848;51.938;15.520;2023-06-05T01:16:59;15.88;44.38
70421;SHT31;57848;51.938;15.520;2023-06-05T01:19:26;15.89;44.50
70421;SHT31;57848;51.938;15.520;2023-06-05T01:21:55;15.81;44.30
70421;SHT31;57848;51.938;15.520;2023-06-05T01:24:23;15.81;44.48
70421;SHT31;57848;51.938;15.520;2023-06-05T01:29:52;15.71;44.60
70421;SHT31;57848;51.938;15.520;2023-06-05T01:32:25;15.67;44.64
70421;SHT31;57848;51.938;15.520;2023-06-05T01:34:56;15.60;44.95
70421;SHT31;57848;51.938;15.520;2023-06-05T01:37:25;15.64;45.04
70421;SHT31;57848;51.938;15.520;2023-06-05T01:39:54;15.53;45.70
70421;SHT31;57848;51.938;15.520;2023-06-05T01:42:20;15.43;45.78
70421;SHT31;57848;51.938;15.520;2023-06-05T01:44:46;15.34;46.16
70421;SHT31;57848;51.938;15.520;2023-06-05T01:47:12;15.30;46.46
70421;SHT31;57848;51.938;15.520;2023-06-05T01:49:38;15.16;46.87
70421;SHT31;57848;51.938;15.520;2023-06-05T01:52:03;15.09;47.14
70421;SHT31;57848;51.938;15.520;2023-06-05T01:54:29;15.04;47.21
70421;SHT31;57848;51.938;15.520;2023-06-05T01:56:57;14.95;47.70
70421;SHT31;57848;51.938;15.520;2023-06-05T01:59:23;14.90;47.95
70421;SHT31;57848;51.938;15.520;2023-06-05T02:01:48;14.75;48.46
70421;SHT31;57848;51.938;15.520;2023-06-05T02:04:14;14.65;48.83
70421;SHT31;57848;51.938;15.520;2023-06-05T02:06:44;14.64;48.86
70421;SHT31;57848;51.938;15.520;2023-06-05T02:09:11;14.59;48.96
70421;SHT31;57848;51.938;15.520;2023-06-05T02:11:40;14.54;49.20
70421;SHT31;57848;51.938;15.520;2023-06-05T02:14:07;14.44;49.67
70421;SHT31;57848;51.938;15.520;2023-06-05T02:16:34;14.40;49.95
70421;SHT31;57848;51.938;15.520;2023-06-05T02:19:02;14.40;50.34
70421;SHT31;57848;51.938;15.520;2023-06-05T02:21:32;14.30;50.32
70421;SHT31;57848;51.938;15.520;2023-06-05T02:24:01;14.31;50.44
70421;SHT31;57848;51.938;15.520;2023-06-05T02:26:26;14.38;50.48
70421;SHT31;57848;51.938;15.520;2023-06-05T02:28:55;14.41;50.40
70421;SHT31;57848;51.938;15.520;2023-06-05T02:31:24;14.31;50.76
70421;SHT31;57848;51.938;15.520;2023-06-05T02:33:54;14.37;50.17
70421;SHT31;57848;51.938;15.520;2023-06-05T02:36:22;14.30;50.84
70421;SHT31;57848;51.938;15.520;2023-06-05T02:38:49;14.24;50.80
70421;SHT31;57848;51.938;15.520;2023-06-05T02:41:19;14.24;50.84
70421;SHT31;57848;51.938;15.520;2023-06-05T02:43:44;14.21;51.05
70421;SHT31;57848;51.938;15.520;2023-06-05T02:46:11;14.25;50.98
70421;SHT31;57848;51.938;15.520;2023-06-05T02:48:37;14.22;50.65
70421;SHT31;57848;51.938;15.520;2023-06-05T02:51:03;14.24;50.78
70421;SHT31;57848;51.938;15.520;2023-06-05T02:53:29;14.20;50.97
70421;SHT31;57848;51.938;15.520;2023-06-05T02:55:54;14.24;51.10
70421;SHT31;57848;51.938;15.520;2023-06-05T02:58:21;14.24;50.83
70421;SHT31;57848;51.938;15.520;2023-06-05T03:00:55;14.21;50.90
70421;SHT31;57848;51.938;15.520;2023-06-05T03:03:31;14.22;50.88
70421;SHT31;57848;51.938;15.520;2023-06-05T03:05:58;14.21;51.04
70421;SHT31;57848;51.938;15.520;2023-06-05T03:08:30;14.31;50.83
70421;SHT31;57848;51.938;15.520;2023-06-05T03:10:56;14.27;50.77
70421;SHT31;57848;51.938;15.520;2023-06-05T03:13:22;14.28;50.74
70421;SHT31;57848;51.938;15.520;2023-06-05T03:15:47;14.25;50.92
70421;SHT31;57848;51.938;15.520;2023-06-05T03:18:15;14.28;50.87
70421;SHT31;57848;51.938;15.520;2023-06-05T03:20:42;14.30;50.89
70421;SHT31;57848;51.938;15.520;2023-06-05T03:23:07;14.32;50.93
70421;SHT31;57848;51.938;15.520;2023-06-05T03:25:34;14.35;50.83
70421;SHT31;57848;51.938;15.520;2023-06-05T03:28:00;14.31;50.95
70421;SHT31;57848;51.938;15.520;2023-06-05T03:30:27;14.34;50.97
70421;SHT31;57848;51.938;15.520;2023-06-05T03:32:54;14.30;51.26
70421;SHT31;57848;51.938;15.520;2023-06-05T03:35:21;14.25;51.37
70421;SHT31;57848;51.938;15.520;2023-06-05T03:37:46;14.27;51.31
70421;SHT31;57848;51.938;15.520;2023-06-05T03:40:12;14.27;51.36
70421;SHT31;57848;51.938;15.520;2023-06-05T03:42:38;14.21;51.71
70421;SHT31;57848;51.938;15.520;2023-06-05T03:45:04;14.22;51.61
70421;SHT31;57848;51.938;15.520;2023-06-05T03:47:30;14.24;51.62
70421;SHT31;57848;51.938;15.520;2023-06-05T03:49:56;14.17;51.93
70421;SHT31;57848;51.938;15.520;2023-06-05T03:52:21;14.16;51.92
70421;SHT31;57848;51.938;15.520;2023-06-05T03:54:48;14.13;52.11
70421;SHT31;57848;51.938;15.520;2023-06-05T03:57:19;14.24;52.08
70421;SHT31;57848;51.938;15.520;2023-06-05T03:59:45;14.18;52.04
70421;SHT31;57848;51.938;15.520;2023-06-05T04:02:12;14.16;52.08
70421;SHT31;57848;51.938;15.520;2023-06-05T04:04:38;14.16;52.39
70421;SHT31;57848;51.938;15.520;2023-06-05T04:07:05;14.20;52.38
70421;SHT31;57848;51.938;15.520;2023-06-05T04:09:31;14.22;52.26
70421;SHT31;57848;51.938;15.520;2023-06-05T04:11:57;14.28;52.14
70421;SHT31;57848;51.938;15.520;2023-06-05T04:14:23;14.27;52.23
70421;SHT31;57848;51.938;15.520;2023-06-05T04:16:49;14.24;52.48
70421;SHT31;57848;51.938;15.520;2023-06-05T04:19:18;14.25;52.44
70421;SHT31;57848;51.938;15.520;2023-06-05T04:21:47;14.27;52.48
70421;SHT31;57848;51.938;15.520;2023-06-05T04:24:12;14.30;52.64
70421;SHT31;57848;51.938;15.520;2023-06-05T04:26:39;14.35;52.81
70421;SHT31;57848;51.938;15.520;2023-06-05T04:29:06;14.30;52.92
70421;SHT31;57848;51.938;15.520;2023-06-05T04:31:38;14.32;52.82
70421;SHT31;57848;51.938;15.520;2023-06-05T04:34:06;14.35;52.94
70421;SHT31;57848;51.938;15.520;2023-06-05T04:36:32;14.41;52.77
70421;SHT31;57848;51.938;15.520;2023-06-05T04:38:59;14.44;52.73
70421;SHT31;57848;51.938;15.520;2023-06-05T04:41:26;14.49;52.71
70421;SHT31;57848;51.938;15.520;2023-06-05T04:43:53;14.57;52.58
70421;SHT31;57848;51.938;15.520;2023-06-05T04:46:20;14.59;52.62
70421;SHT31;57848;51.938;15.520;2023-06-05T04:48:45;14.65;52.96
70421;SHT31;57848;51.938;15.520;2023-06-05T04:51:11;14.75;52.70
70421;SHT31;57848;51.938;15.520;2023-06-05T04:53:37;14.71;52.68
70421;SHT31;57848;51.938;15.520;2023-06-05T04:56:02;14.75;52.67
70421;SHT31;57848;51.938;15.520;2023-06-05T04:58:31;14.75;52.98
70421;SHT31;57848;51.938;15.520;2023-06-05T05:00:57;14.82;53.01
70421;SHT31;57848;51.938;15.520;2023-06-05T05:03:31;14.92;53.05
70421;SHT31;57848;51.938;15.520;2023-06-05T05:05:57;14.99;53.03
70421;SHT31;57848;51.938;15.520;2023-06-05T05:08:22;15.06;53.94
70421;SHT31;57848;51.938;15.520;2023-06-05T05:10:47;15.10;53.98
70421;SHT31;57848;51.938;15.520;2023-06-05T05:13:13;15.17;53.81
70421;SHT31;57848;51.938;15.520;2023-06-05T05:15:38;15.22;53.61
70421;SHT31;57848;51.938;15.520;2023-06-05T05:18:04;15.30;53.40
70421;SHT31;57848;51.938;15.520;2023-06-05T05:20:30;15.39;53.55
70421;SHT31;57848;51.938;15.520;2023-06-05T05:22:59;15.44;53.43
70421;SHT31;57848;51.938;15.520;2023-06-05T05:25:25;15.48;53.36
70421;SHT31;57848;51.938;15.520;2023-06-05T05:27:51;15.60;53.47
70421;SHT31;57848;51.938;15.520;2023-06-05T05:30:17;15.65;53.58
70421;SHT31;57848;51.938;15.520;2023-06-05T05:32:42;15.74;53.67
70421;SHT31;57848;51.938;15.520;2023-06-05T05:35:10;15.81;53.64
70421;SHT31;57848;51.938;15.520;2023-06-05T05:37:35;15.89;53.45
70421;SHT31;57848;51.938;15.520;2023-06-05T05:40:01;15.94;52.91
70421;SHT31;57848;51.938;15.520;2023-06-05T05:42:26;16.02;52.60
70421;SHT31;57848;51.938;15.520;2023-06-05T05:44:51;16.09;52.53
70421;SHT31;57848;51.938;15.520;2023-06-05T05:47:16;16.16;51.66
70421;SHT31;57848;51.938;15.520;2023-06-05T05:49:42;16.29;51.66
70421;SHT31;57848;51.938;15.520;2023-06-05T05:52:09;16.30;51.76
70421;SHT31;57848;51.938;15.520;2023-06-05T05:54:34;16.33;51.69
70421;SHT31;57848;51.938;15.520;2023-06-05T05:56:59;16.43;51.72
70421;SHT31;57848;51.938;15.520;2023-06-05T05:59:25;16.49;51.18
70421;SHT31;57848;51.938;15.520;2023-06-05T06:01:50;16.59;51.05
70421;SHT31;57848;51.938;15.520;2023-06-05T06:04:16;16.67;50.71
70421;SHT31;57848;51.938;15.520;2023-06-05T06:06:42;16.78;50.81
70421;SHT31;57848;51.938;15.520;2023-06-05T06:09:08;16.87;50.21
70421;SHT31;57848;51.938;15.520;2023-06-05T06:11:36;16.94;50.16
70421;SHT31;57848;51.938;15.520;2023-06-05T06:14:01;17.01;50.19
70421;SHT31;57848;51.938;15.520;2023-06-05T06:16:26;17.06;50.21
70421;SHT31;57848;51.938;15.520;2023-06-05T06:18:52;17.18;49.99
70421;SHT31;57848;51.938;15.520;2023-06-05T06:21:18;17.22;49.54
70421;SHT31;57848;51.938;15.520;2023-06-05T06:23:44;17.29;49.52
70421;SHT31;57848;51.938;15.520;2023-06-05T06:26:10;17.34;49.65
70421;SHT31;57848;51.938;15.520;2023-06-05T06:28:37;17.39;49.96
70421;SHT31;57848;51.938;15.520;2023-06-05T06:31:02;17.43;49.34
70421;SHT31;57848;51.938;15.520;2023-06-05T06:33:27;17.49;49.66
70421;SHT31;57848;51.938;15.520;2023-06-05T06:35:54;17.55;49.25
70421;SHT31;57848;51.938;15.520;2023-06-05T06:38:20;17.72;48.47
70421;SHT31;57848;51.938;15.520;2023-06-05T06:40:46;17.75;49.19
70421;SHT31;57848;51.938;15.520;2023-06-05T06:43:12;17.80;49.37
70421;SHT31;57848;51.938;15.520;2023-06-05T06:45:41;17.89;48.99
70421;SHT31;57848;51.938;15.520;2023-06-05T06:48:06;17.89;48.42
70421;SHT31;57848;51.938;15.520;2023-06-05T06:50:31;18.04;47.31
70421;SHT31;57848;51.938;15.520;2023-06-05T06:52:57;18.20;47.02
70421;SHT31;57848;51.938;15.520;2023-06-05T06:55:22;18.31;47.04
70421;SHT31;57848;51.938;15.520;2023-06-05T06:57:47;18.37;47.14
70421;SHT31;57848;51.938;15.520;2023-06-05T07:00:13;18.44;47.78
70421;SHT31;57848;51.938;15.520;2023-06-05T07:02:40;18.58;46.72
70421;SHT31;57848;51.938;15.520;2023-06-05T07:05:05;18.68;47.96
70421;SHT31;57848;51.938;15.520;2023-06-05T07:07:31;18.76;47.11
70421;SHT31;57848;51.938;15.520;2023-06-05T07:09:56;18.81;47.76
70421;SHT31;57848;51.938;15.520;2023-06-05T07:12:23;18.84;48.04
70421;SHT31;57848;51.938;15.520;2023-06-05T07:14:48;18.88;47.64
70421;SHT31;57848;51.938;15.520;2023-06-05T07:17:14;19.03;47.55
70421;SHT31;57848;51.938;15.520;2023-06-05T07:19:39;19.07;47.72
70421;SHT31;57848;51.938;15.520;2023-06-05T07:22:05;19.24;46.03
70421;SHT31;57848;51.938;15.520;2023-06-05T07:24:32;19.28;46.61
70421;SHT31;57848;51.938;15.520;2023-06-05T07:26:59;19.38;46.92
70421;SHT31;57848;51.938;15.520;2023-06-05T07:29:26;19.50;49.21
70421;SHT31;57848;51.938;15.520;2023-06-05T07:31:53;19.53;49.85
70421;SHT31;57848;51.938;15.520;2023-06-05T07:34:20;19.57;49.67
70421;SHT31;57848;51.938;15.520;2023-06-05T07:36:47;19.64;49.16
70421;SHT31;57848;51.938;15.520;2023-06-05T07:39:14;19.68;50.01
70421;SHT31;57848;51.938;15.520;2023-06-05T07:41:40;19.79;50.00
70421;SHT31;57848;51.938;15.520;2023-06-05T07:44:16;19.91;49.40
70421;SHT31;57848;51.938;15.520;2023-06-05T07:46:42;19.92;49.47
70421;SHT31;57848;51.938;15.520;2023-06-05T07:49:08;19.99;46.96
70421;SHT31;57848;51.938;15.520;2023-06-05T07:51:34;20.04;46.69
70421;SHT31;57848;51.938;15.520;2023-06-05T07:54:03;20.19;47.40
70421;SHT31;57848;51.938;15.520;2023-06-05T07:56:29;20.28;45.33
70421;SHT31;57848;51.938;15.520;2023-06-05T07:58:56;20.47;44.56
70421;SHT31;57848;51.938;15.520;2023-06-05T08:01:22;20.55;44.51
70421;SHT31;57848;51.938;15.520;2023-06-05T08:03:47;20.62;44.63
70421;SHT31;57848;51.938;15.520;2023-06-05T08:06:13;20.63;45.75
70421;SHT31;57848;51.938;15.520;2023-06-05T08:08:38;20.74;43.17
70421;SHT31;57848;51.938;15.520;2023-06-05T08:11:03;20.86;42.35
70421;SHT31;57848;51.938;15.520;2023-06-05T08:13:29;20.87;42.04
70421;SHT31;57848;51.938;15.520;2023-06-05T08:15:55;20.90;41.78
70421;SHT31;57848;51.938;15.520;2023-06-05T08:18:20;20.97;43.10
70421;SHT31;57848;51.938;15.520;2023-06-05T08:20:46;21.07;42.83
70421;SHT31;57848;51.938;15.520;2023-06-05T08:23:11;21.08;42.14
70421;SHT31;57848;51.938;15.520;2023-06-05T08:25:38;21.15;42.32
70421;SHT31;57848;51.938;15.520;2023-06-05T08:28:04;21.14;42.35
70421;SHT31;57848;51.938;15.520;2023-06-05T08:30:29;21.14;42.93
70421;SHT31;57848;51.938;15.520;2023-06-05T08:32:54;21.20;43.24
70421;SHT31;57848;51.938;15.520;2023-06-05T08:35:20;21.23;42.05
70421;SHT31;57848;51.938;15.520;2023-06-05T08:37:45;21.31;42.20
70421;SHT31;57848;51.938;15.520;2023-06-05T08:40:11;21.39;41.62
70421;SHT31;57848;51.938;15.520;2023-06-05T08:42:38;21.46;39.53
70421;SHT31;57848;51.938;15.520;2023-06-05T08:45:07;21.49;42.20
70421;SHT31;57848;51.938;15.520;2023-06-05T08:47:36;21.44;42.04
70421;SHT31;57848;51.938;15.520;2023-06-05T08:50:04;21.49;41.59
70421;SHT31;57848;51.938;15.520;2023-06-05T08:52:33;21.45;41.19
70421;SHT31;57848;51.938;15.520;2023-06-05T08:55:00;21.49;42.58
70421;SHT31;57848;51.938;15.520;2023-06-05T08:57:26;21.71;41.64
70421;SHT31;57848;51.938;15.520;2023-06-05T08:59:53;21.81;40.63
70421;SHT31;57848;51.938;15.520;2023-06-05T09:02:18;21.89;39.43
70421;SHT31;57848;51.938;15.520;2023-06-05T09:04:43;21.86;39.64
70421;SHT31;57848;51.938;15.520;2023-06-05T09:07:11;21.94;39.58
70421;SHT31;57848;51.938;15.520;2023-06-05T09:09:36;21.83;37.98
70421;SHT31;57848;51.938;15.520;2023-06-05T09:12:06;21.82;39.36
70421;SHT31;57848;51.938;15.520;2023-06-05T09:14:32;21.96;39.21
70421;SHT31;57848;51.938;15.520;2023-06-05T09:16:59;22.10;38.91
70421;SHT31;57848;51.938;15.520;2023-06-05T09:19:35;22.04;38.02
70421;SHT31;57848;51.938;15.520;2023-06-05T09:22:01;22.06;37.92
70421;SHT31;57848;51.938;15.520;2023-06-05T09:24:26;22.18;38.24
70421;SHT31;57848;51.938;15.520;2023-06-05T09:29:31;22.24;38.49
70421;SHT31;57848;51.938;15.520;2023-06-05T09:32:05;22.54;37.74
70421;SHT31;57848;51.938;15.520;2023-06-05T09:34:35;22.65;38.71
70421;SHT31;57848;51.938;15.520;2023-06-05T09:37:03;22.75;37.55
70421;SHT31;57848;51.938;15.520;2023-06-05T09:39:31;22.88;38.16
70421;SHT31;57848;51.938;15.520;2023-06-05T09:41:57;22.99;38.37
70421;SHT31;57848;51.938;15.520;2023-06-05T09:44:25;22.99;36.20
70421;SHT31;57848;51.938;15.520;2023-06-05T09:46:54;23.09;37.47
70421;SHT31;57848;51.938;15.520;2023-06-05T09:49:23;23.18;37.02
70421;SHT31;57848;51.938;15.520;2023-06-05T09:51:48;23.24;34.45
70421;SHT31;57848;51.938;15.520;2023-06-05T09:54:14;23.39;34.56
70421;SHT31;57848;51.938;15.520;2023-06-05T09:56:41;23.34;34.70
70421;SHT31;57848;51.938;15.520;2023-06-05T09:59:08;23.34;34.63
70421;SHT31;57848;51.938;15.520;2023-06-05T10:01:36;23.50;34.24
70421;SHT31;57848;51.938;15.520;2023-06-05T10:04:11;23.67;34.20
70421;SHT31;57848;51.938;15.520;2023-06-05T10:06:38;23.70;34.70
70421;SHT31;57848;51.938;15.520;2023-06-05T10:09:06;23.80;34.41
70421;SHT31;57848;51.938;15.520;2023-06-05T10:11:32;23.87;34.45
70421;SHT31;57848;51.938;15.520;2023-06-05T10:13:58;23.97;34.09
70421;SHT31;57848;51.938;15.520;2023-06-05T10:16:26;23.96;33.94
70421;SHT31;57848;51.938;15.520;2023-06-05T10:18:54;24.00;34.26
70421;SHT31;57848;51.938;15.520;2023-06-05T10:21:20;24.01;34.48
70421;SHT31;57848;51.938;15.520;2023-06-05T10:23:52;24.11;35.17
70421;SHT31;57848;51.938;15.520;2023-06-05T10:31:45;25.81;31.96
70421;SHT31;57848;51.938;15.520;2023-06-05T10:34:40;27.53;29.56
70421;SHT31;57848;51.938;15.520;2023-06-05T10:39:48;29.16;27.97
70421;SHT31;57848;51.938;15.520;2023-06-05T10:42:22;30.09;27.80
70421;SHT31;57848;51.938;15.520;2023-06-05T10:44:48;29.81;27.05
70421;SHT31;57848;51.938;15.520;2023-06-05T10:47:48;30.37;27.15
70421;SHT31;57848;51.938;15.520;2023-06-05T10:52:47;32.09;26.26
70421;SHT31;57848;51.938;15.520;2023-06-05T10:55:13;32.53;24.60
70421;SHT31;57848;51.938;15.520;2023-06-05T10:58:08;32.82;24.63
70421;SHT31;57848;51.938;15.520;2023-06-05T11:00:35;32.00;24.46
70421;SHT31;57848;51.938;15.520;2023-06-05T11:03:01;32.07;24.42
70421;SHT31;57848;51.938;15.520;2023-06-05T11:05:27;33.22;24.44
70421;SHT31;57848;51.938;15.520;2023-06-05T11:08:10;33.70;24.44
70421;SHT31;57848;51.938;15.520;2023-06-05T11:11:01;34.23;23.24
70421;SHT31;57848;51.938;15.520;2023-06-05T11:13:56;34.25;23.04
70421;SHT31;57848;51.938;15.520;2023-06-05T11:16:31;34.66;23.22
70421;SHT31;57848;51.938;15.520;2023-06-05T11:22:03;34.64;22.79
70421;SHT31;57848;51.938;15.520;2023-06-05T11:24:29;35.27;22.35
70421;SHT31;57848;51.938;15.520;2023-06-05T11:26:54;35.39;22.03
70421;SHT31;57848;51.938;15.520;2023-06-05T11:29:24;35.39;22.37
70421;SHT31;57848;51.938;15.520;2023-06-05T11:31:55;35.44;22.33
70421;SHT31;57848;51.938;15.520;2023-06-05T11:34:21;35.09;21.90
70421;SHT31;57848;51.938;15.520;2023-06-05T11:36:46;35.55;22.01
70421;SHT31;57848;51.938;15.520;2023-06-05T11:39:13;35.98;21.10
70421;SHT31;57848;51.938;15.520;2023-06-05T11:41:46;35.53;21.37
70421;SHT31;57848;51.938;15.520;2023-06-05T11:44:12;36.09;21.24
70421;SHT31;57848;51.938;15.520;2023-06-05T11:46:39;35.77;21.33
70421;SHT31;57848;51.938;15.520;2023-06-05T11:49:06;36.56;21.28
70421;SHT31;57848;51.938;15.520;2023-06-05T11:51:35;36.66;21.27
70421;SHT31;57848;51.938;15.520;2023-06-05T11:54:01;37.18;21.30
70421;SHT31;57848;51.938;15.520;2023-06-05T11:56:32;37.51;19.88
70421;SHT31;57848;51.938;15.520;2023-06-05T11:58:57;37.54;19.80
70421;SHT31;57848;51.938;15.520;2023-06-05T12:01:23;37.62;20.14
70421;SHT31;57848;51.938;15.520;2023-06-05T12:04:04;37.37;20.42
70421;SHT31;57848;51.938;15.520;2023-06-05T12:06:30;37.23;20.37
70421;SHT31;57848;51.938;15.520;2023-06-05T12:09:12;38.01;19.87
70421;SHT31;57848;51.938;15.520;2023-06-05T12:11:39;37.26;20.12
70421;SHT31;57848;51.938;15.520;2023-06-05T12:14:04;37.30;20.59
70421;SHT31;57848;51.938;15.520;2023-06-05T12:16:36;38.15;20.70
70421;SHT31;57848;51.938;15.520;2023-06-05T12:19:10;38.43;20.55
70421;SHT31;57848;51.938;15.520;2023-06-05T12:21:35;38.19;19.42
70421;SHT31;57848;51.938;15.520;2023-06-05T12:24:02;38.30;19.72
70421;SHT31;57848;51.938;15.520;2023-06-05T12:26:27;37.10;20.26
70421;SHT31;57848;51.938;15.520;2023-06-05T12:29:04;36.86;20.17
70421;SHT31;57848;51.938;15.520;2023-06-05T12:31:36;37.04;20.61
70421;SHT31;57848;51.938;15.520;2023-06-05T12:34:04;37.33;20.10
70421;SHT31;57848;51.938;15.520;2023-06-05T12:36:31;38.25;20.14
70421;SHT31;57848;51.938;15.520;2023-06-05T12:39:03;38.32;19.84
70421;SHT31;57848;51.938;15.520;2023-06-05T12:41:32;38.91;19.35
70421;SHT31;57848;51.938;15.520;2023-06-05T12:44:05;39.29;19.11
70421;SHT31;57848;51.938;15.520;2023-06-05T12:46:31;38.56;18.92
70421;SHT31;57848;51.938;15.520;2023-06-05T12:49:00;38.85;18.53
70421;SHT31;57848;51.938;15.520;2023-06-05T12:51:26;38.98;19.05
70421;SHT31;57848;51.938;15.520;2023-06-05T12:53:56;38.52;18.50
70421;SHT31;57848;51.938;15.520;2023-06-05T12:56:24;38.30;19.03
70421;SHT31;57848;51.938;15.520;2023-06-05T12:58:53;38.53;18.94
70421;SHT31;57848;51.938;15.520;2023-06-05T13:01:19;37.88;19.54
70421;SHT31;57848;51.938;15.520;2023-06-05T13:03:44;37.58;19.46
70421;SHT31;57848;51.938;15.520;2023-06-05T13:06:10;38.33;19.89
70421;SHT31;57848;51.938;15.520;2023-06-05T13:08:35;38.93;19.26
70421;SHT31;57848;51.938;15.520;2023-06-05T13:11:01;38.26;19.63
70421;SHT31;57848;51.938;15.520;2023-06-05T13:13:26;37.69;19.81
70421;SHT31;57848;51.938;15.520;2023-06-05T13:15:53;37.71;19.53
70421;SHT31;57848;51.938;15.520;2023-06-05T13:18:18;37.30;20.73
70421;SHT31;57848;51.938;15.520;2023-06-05T13:20:44;37.01;20.00
70421;SHT31;57848;51.938;15.520;2023-06-05T13:23:10;37.55;19.83
70421;SHT31;57848;51.938;15.520;2023-06-05T13:25:36;37.33;19.97
70421;SHT31;57848;51.938;15.520;2023-06-05T13:28:02;35.94;20.43
70421;SHT31;57848;51.938;15.520;2023-06-05T13:30:27;36.24;20.17
70421;SHT31;57848;51.938;15.520;2023-06-05T13:32:52;36.15;20.98
70421;SHT31;57848;51.938;15.520;2023-06-05T13:35:19;36.68;19.86
70421;SHT31;57848;51.938;15.520;2023-06-05T13:37:44;36.17;20.65
70421;SHT31;57848;51.938;15.520;2023-06-05T13:40:10;36.42;20.29
70421;SHT31;57848;51.938;15.520;2023-06-05T13:42:36;36.04;20.13
70421;SHT31;57848;51.938;15.520;2023-06-05T13:45:02;35.26;21.42
70421;SHT31;57848;51.938;15.520;2023-06-05T13:47:28;34.88;21.16
70421;SHT31;57848;51.938;15.520;2023-06-05T13:49:53;33.36;22.11
70421;SHT31;57848;51.938;15.520;2023-06-05T13:52:19;33.22;23.47
70421;SHT31;57848;51.938;15.520;2023-06-05T13:54:44;33.12;22.90
70421;SHT31;57848;51.938;15.520;2023-06-05T13:57:10;32.03;23.34
70421;SHT31;57848;51.938;15.520;2023-06-05T13:59:37;31.99;23.18
70421;SHT31;57848;51.938;15.520;2023-06-05T14:02:02;32.16;22.77
70421;SHT31;57848;51.938;15.520;2023-06-05T14:04:28;32.07;23.90
70421;SHT31;57848;51.938;15.520;2023-06-05T14:06:54;31.31;24.18
70421;SHT31;57848;51.938;15.520;2023-06-05T14:09:20;30.70;24.84
70421;SHT31;57848;51.938;15.520;2023-06-05T14:11:45;30.37;25.16
70421;SHT31;57848;51.938;15.520;2023-06-05T14:14:11;30.44;25.44
70421;SHT31;57848;51.938;15.520;2023-06-05T14:16:36;30.11;26.03
70421;SHT31;57848;51.938;15.520;2023-06-05T14:19:02;29.92;26.15
70421;SHT31;57848;51.938;15.520;2023-06-05T14:21:27;29.89;27.20
70421;SHT31;57848;51.938;15.520;2023-06-05T14:23:53;29.49;26.95
70421;SHT31;57848;51.938;15.520;2023-06-05T14:26:18;29.35;26.98
70421;SHT31;57848;51.938;15.520;2023-06-05T14:28:43;29.07;27.74
70421;SHT31;57848;51.938;15.520;2023-06-05T14:31:09;29.02;27.52
70421;SHT31;57848;51.938;15.520;2023-06-05T14:33:34;29.19;27.74
70421;SHT31;57848;51.938;15.520;2023-06-05T14:36:00;29.00;27.19
70421;SHT31;57848;51.938;15.520;2023-06-05T14:38:25;28.98;28.35
70421;SHT31;57848;51.938;15.520;2023-06-05T14:40:50;28.85;26.85
70421;SHT31;57848;51.938;15.520;2023-06-05T14:43:17;28.54;27.50
70421;SHT31;57848;51.938;15.520;2023-06-05T14:45:43;28.48;28.27
70421;SHT31;57848;51.938;15.520;2023-06-05T14:48:08;28.00;28.14
70421;SHT31;57848;51.938;15.520;2023-06-05T14:50:36;28.11;28.66
70421;SHT31;57848;51.938;15.520;2023-06-05T14:53:02;27.65;28.77
70421;SHT31;57848;51.938;15.520;2023-06-05T14:55:27;27.62;28.22
70421;SHT31;57848;51.938;15.520;2023-06-05T14:57:52;27.42;28.13
70421;SHT31;57848;51.938;15.520;2023-06-05T15:00:18;27.21;28.93
70421;SHT31;57848;51.938;15.520;2023-06-05T15:02:43;27.01;29.20
70421;SHT31;57848;51.938;15.520;2023-06-05T15:05:09;26.97;28.78
70421;SHT31;57848;51.938;15.520;2023-06-05T15:07:36;27.01;29.05
70421;SHT31;57848;51.938;15.520;2023-06-05T15:10:03;27.12;29.79
70421;SHT31;57848;51.938;15.520;2023-06-05T15:12:28;27.12;30.50
70421;SHT31;57848;51.938;15.520;2023-06-05T15:14:53;26.83;29.93
70421;SHT31;57848;51.938;15.520;2023-06-05T15:17:19;26.91;29.63
70421;SHT31;57848;51.938;15.520;2023-06-05T15:19:44;26.78;30.14
70421;SHT31;57848;51.938;15.520;2023-06-05T15:22:10;26.70;31.51
70421;SHT31;57848;51.938;15.520;2023-06-05T15:24:35;26.78;30.71
70421;SHT31;57848;51.938;15.520;2023-06-05T15:27:01;26.48;30.24
70421;SHT31;57848;51.938;15.520;2023-06-05T15:29:26;26.32;30.67
70421;SHT31;57848;51.938;15.520;2023-06-05T15:31:51;26.50;30.83
70421;SHT31;57848;51.938;15.520;2023-06-05T15:34:17;26.57;31.39